sensor_id;sensor_type;location;lat;lon;timestamp;P1;durP1;ratioP1;P2;durP2;ratioP2
3549;SDS011;45572;48.804;8.330;2023-04-23T00:01:56;8.52;;;5.05;;
3549;SDS011;45572;48.804;8.330;2023-04-23T00:04:25;6.40;;;4.93;;
3549;SDS011;45572;48.804;8.330;2023-04-23T00:06:55;6.25;;;4.25;;
3549;SDS011;45572;48.804;8.330;2023-04-23T00:09:24;6.90;;;4.78;;
3549;SDS011;45572;48.804;8.330;2023-04-23T00:11:56;7.38;;;4.80;;
3549;SDS011;45572;48.804;8.330;2023-04-23T00:14:25;5.22;;;4.40;;
3549;SDS011;45572;48.804;8.330;2023-04-23T00:16:54;7.45;;;5.22;;
3549;SDS011;45572;48.804;8.330;2023-04-23T00:19:22;6.93;;;4.43;;
3549;SDS011;45572;48.804;8.330;2023-04-23T00:21:50;7.97;;;4.40;;
3549;SDS011;45572;48.804;8.330;2023-04-23T00:24:18;5.68;;;3.92;;
3549;SDS011;45572;48.804;8.330;2023-04-23T00:26:46;5.35;;;4.13;;
3549;SDS011;45572;48.804;8.330;2023-04-23T00:29:14;8.93;;;4.10;;
3549;SDS011;45572;48.804;8.330;2023-04-23T00:31:43;8.70;;;4.18;;
3549;SDS011;45572;48.804;8.330;2023-04-23T00:34:11;6.15;;;3.97;;
3549;SDS011;45572;48.804;8.330;2023-04-23T00:36:38;6.25;;;3.85;;
3549;SDS011;45572;48.804;8.330;2023-04-23T00:39:06;6.03;;;3.63;;
3549;SDS011;45572;48.804;8.330;2023-04-23T00:41:34;5.93;;;3.63;;
3549;SDS011;45572;48.804;8.330;2023-04-23T00:44:02;5.35;;;3.42;;
3549;SDS011;45572;48.804;8.330;2023-04-23T00:46:30;6.97;;;3.35;;
3549;SDS011;45572;48.804;8.330;2023-04-23T00:48:59;4.45;;;3.25;;
3549;SDS011;45572;48.804;8.330;2023-04-23T00:51:28;5.30;;;3.20;;
3549;SDS011;45572;48.804;8.330;2023-04-23T00:53:57;5.70;;;2.72;;
3549;SDS011;45572;48.804;8.330;2023-04-23T00:56:25;7.00;;;2.60;;
3549;SDS011;45572;48.804;8.330;2023-04-23T00:58:53;4.47;;;2.85;;
3549;SDS011;45572;48.804;8.330;2023-04-23T01:01:22;3.97;;;2.72;;
3549;SDS011;45572;48.804;8.330;2023-04-23T01:03:51;4.72;;;2.78;;
3549;SDS011;45572;48.804;8.330;2023-04-23T01:06:23;3.95;;;2.53;;
3549;SDS011;45572;48.804;8.330;2023-04-23T01:08:53;3.10;;;2.40;;
3549;SDS011;45572;48.804;8.330;2023-04-23T01:11:22;5.75;;;2.28;;
3549;SDS011;45572;48.804;8.330;2023-04-23T01:13:50;6.05;;;1.90;;
3549;SDS011;45572;48.804;8.330;2023-04-23T01:16:18;2.67;;;2.13;;
3549;SDS011;45572;48.804;8.330;2023-04-23T01:18:46;5.25;;;2.63;;
3549;SDS011;45572;48.804;8.330;2023-04-23T01:21:13;2.35;;;2.15;;
3549;SDS011;45572;48.804;8.330;2023-04-23T01:23:44;2.75;;;2.33;;
3549;SDS011;45572;48.804;8.330;2023-04-23T01:26:14;6.03;;;1.90;;
3549;SDS011;45572;48.804;8.330;2023-04-23T01:28:44;2.55;;;1.95;;
3549;SDS011;45572;48.804;8.330;2023-04-23T01:31:12;2.90;;;1.90;;
3549;SDS011;45572;48.804;8.330;2023-04-23T01:33:40;5.05;;;2.28;;
3549;SDS011;45572;48.804;8.330;2023-04-23T01:36:09;3.15;;;2.00;;
3549;SDS011;45572;48.804;8.330;2023-04-23T01:38:37;3.25;;;1.60;;
3549;SDS011;45572;48.804;8.330;2023-04-23T01:41:07;2.33;;;1.52;;
3549;SDS011;45572;48.804;8.330;2023-04-23T01:43:35;2.00;;;1.60;;
3549;SDS011;45572;48.804;8.330;2023-04-23T01:46:03;5.63;;;1.85;;
3549;SDS011;45572;48.804;8.330;2023-04-23T01:48:32;1.80;;;1.55;;
3549;SDS011;45572;48.804;8.330;2023-04-23T01:51:00;2.25;;;1.67;;
3549;SDS011;45572;48.804;8.330;2023-04-23T01:53:28;4.07;;;2.10;;
3549;SDS011;45572;48.804;8.330;2023-04-23T01:55:56;2.95;;;1.70;;
3549;SDS011;45572;48.804;8.330;2023-04-23T01:58:28;1.50;;;1.27;;
3549;SDS011;45572;48.804;8.330;2023-04-23T02:00:56;2.17;;;1.58;;
3549;SDS011;45572;48.804;8.330;2023-04-23T02:03:23;7.88;;;1.85;;
3549;SDS011;45572;48.804;8.330;2023-04-23T02:05:51;4.03;;;1.70;;
3549;SDS011;45572;48.804;8.330;2023-04-23T02:08:20;1.95;;;1.50;;
3549;SDS011;45572;48.804;8.330;2023-04-23T02:10:48;1.48;;;1.10;;
3549;SDS011;45572;48.804;8.330;2023-04-23T02:13:16;1.40;;;1.30;;
3549;SDS011;45572;48.804;8.330;2023-04-23T02:15:45;1.95;;;1.10;;
3549;SDS011;45572;48.804;8.330;2023-04-23T02:18:13;2.00;;;1.10;;
3549;SDS011;45572;48.804;8.330;2023-04-23T02:20:41;2.15;;;1.00;;
3549;SDS011;45572;48.804;8.330;2023-04-23T02:23:09;1.50;;;1.05;;
3549;SDS011;45572;48.804;8.330;2023-04-23T02:25:38;4.45;;;1.40;;
3549;SDS011;45572;48.804;8.330;2023-04-23T02:28:06;3.25;;;1.45;;
3549;SDS011;45572;48.804;8.330;2023-04-23T02:30:34;2.10;;;1.38;;
3549;SDS011;45572;48.804;8.330;2023-04-23T02:33:03;2.25;;;1.13;;
3549;SDS011;45572;48.804;8.330;2023-04-23T02:35:31;1.88;;;1.20;;
3549;SDS011;45572;48.804;8.330;2023-04-23T02:37:59;6.78;;;1.63;;
3549;SDS011;45572;48.804;8.330;2023-04-23T02:40:27;2.40;;;1.70;;
3549;SDS011;45572;48.804;8.330;2023-04-23T02:42:55;2.17;;;1.30;;
3549;SDS011;45572;48.804;8.330;2023-04-23T02:45:23;2.42;;;1.30;;
3549;SDS011;45572;48.804;8.330;2023-04-23T02:47:51;4.05;;;1.65;;
3549;SDS011;45572;48.804;8.330;2023-04-23T02:50:20;1.85;;;1.55;;
3549;SDS011;45572;48.804;8.330;2023-04-23T02:52:48;2.13;;;1.30;;
3549;SDS011;45572;48.804;8.330;2023-04-23T02:55:16;4.25;;;1.20;;
3549;SDS011;45572;48.804;8.330;2023-04-23T02:57:44;1.85;;;1.30;;
3549;SDS011;45572;48.804;8.330;2023-04-23T03:00:12;1.70;;;1.23;;
3549;SDS011;45572;48.804;8.330;2023-04-23T03:02:42;8.00;;;1.80;;
3549;SDS011;45572;48.804;8.330;2023-04-23T03:05:10;3.03;;;1.55;;
3549;SDS011;45572;48.804;8.330;2023-04-23T03:07:40;2.03;;;1.83;;
3549;SDS011;45572;48.804;8.330;2023-04-23T03:10:08;2.00;;;1.67;;
3549;SDS011;45572;48.804;8.330;2023-04-23T03:12:37;2.60;;;1.63;;
3549;SDS011;45572;48.804;8.330;2023-04-23T03:15:05;2.60;;;1.30;;
3549;SDS011;45572;48.804;8.330;2023-04-23T03:17:35;4.80;;;2.10;;
3549;SDS011;45572;48.804;8.330;2023-04-23T03:20:04;2.63;;;1.75;;
3549;SDS011;45572;48.804;8.330;2023-04-23T03:22:36;3.67;;;1.50;;
3549;SDS011;45572;48.804;8.330;2023-04-23T03:25:06;2.15;;;1.90;;
3549;SDS011;45572;48.804;8.330;2023-04-23T03:27:37;2.70;;;1.63;;
3549;SDS011;45572;48.804;8.330;2023-04-23T03:30:06;4.22;;;1.60;;
3549;SDS011;45572;48.804;8.330;2023-04-23T03:32:35;2.40;;;2.20;;
3549;SDS011;45572;48.804;8.330;2023-04-23T03:35:08;1.52;;;1.08;;
3549;SDS011;45572;48.804;8.330;2023-04-23T03:37:39;1.90;;;1.50;;
3549;SDS011;45572;48.804;8.330;2023-04-23T03:40:08;4.18;;;1.90;;
3549;SDS011;45572;48.804;8.330;2023-04-23T03:42:39;1.58;;;1.30;;
3549;SDS011;45572;48.804;8.330;2023-04-23T03:45:08;3.10;;;1.60;;
3549;SDS011;45572;48.804;8.330;2023-04-23T03:47:38;2.28;;;1.52;;
3549;SDS011;45572;48.804;8.330;2023-04-23T03:50:07;4.63;;;1.95;;
3549;SDS011;45572;48.804;8.330;2023-04-23T03:52:36;2.03;;;1.70;;
3549;SDS011;45572;48.804;8.330;2023-04-23T03:55:09;2.08;;;1.63;;
3549;SDS011;45572;48.804;8.330;2023-04-23T03:57:41;2.20;;;1.40;;
3549;SDS011;45572;48.804;8.330;2023-04-23T04:00:18;2.55;;;1.45;;
3549;SDS011;45572;48.804;8.330;2023-04-23T04:02:46;2.17;;;1.80;;
3549;SDS011;45572;48.804;8.330;2023-04-23T04:05:14;6.28;;;1.70;;
3549;SDS011;45572;48.804;8.330;2023-04-23T04:07:43;3.42;;;2.00;;
3549;SDS011;45572;48.804;8.330;2023-04-23T04:10:13;3.05;;;1.73;;
3549;SDS011;45572;48.804;8.330;2023-04-23T04:12:41;6.90;;;1.98;;
3549;SDS011;45572;48.804;8.330;2023-04-23T04:15:10;3.38;;;1.88;;
3549;SDS011;45572;48.804;8.330;2023-04-23T04:17:38;3.15;;;2.28;;
3549;SDS011;45572;48.804;8.330;2023-04-23T04:20:06;4.10;;;2.25;;
3549;SDS011;45572;48.804;8.330;2023-04-23T04:22:36;5.72;;;2.00;;
3549;SDS011;45572;48.804;8.330;2023-04-23T04:25:04;6.88;;;2.38;;
3549;SDS011;45572;48.804;8.330;2023-04-23T04:27:34;3.55;;;2.15;;
3549;SDS011;45572;48.804;8.330;2023-04-23T04:30:02;3.60;;;2.72;;
3549;SDS011;45572;48.804;8.330;2023-04-23T04:32:31;5.57;;;2.80;;
3549;SDS011;45572;48.804;8.330;2023-04-23T04:34:59;6.22;;;2.85;;
3549;SDS011;45572;48.804;8.330;2023-04-23T04:37:27;2.33;;;1.95;;
3549;SDS011;45572;48.804;8.330;2023-04-23T04:39:55;3.55;;;2.53;;
3549;SDS011;45572;48.804;8.330;2023-04-23T04:42:23;6.57;;;2.13;;
3549;SDS011;45572;48.804;8.330;2023-04-23T04:44:52;2.78;;;2.17;;
3549;SDS011;45572;48.804;8.330;2023-04-23T04:47:23;6.25;;;1.77;;
3549;SDS011;45572;48.804;8.330;2023-04-23T04:49:51;5.45;;;2.47;;
3549;SDS011;45572;48.804;8.330;2023-04-23T04:52:22;4.15;;;2.10;;
3549;SDS011;45572;48.804;8.330;2023-04-23T04:54:50;2.65;;;1.80;;
3549;SDS011;45572;48.804;8.330;2023-04-23T04:57:18;3.28;;;2.40;;
3549;SDS011;45572;48.804;8.330;2023-04-23T04:59:48;3.25;;;2.28;;
3549;SDS011;45572;48.804;8.330;2023-04-23T05:02:17;4.78;;;1.90;;
3549;SDS011;45572;48.804;8.330;2023-04-23T05:04:47;2.38;;;2.10;;
3549;SDS011;45572;48.804;8.330;2023-04-23T05:07:15;3.65;;;2.22;;
3549;SDS011;45572;48.804;8.330;2023-04-23T05:09:43;4.50;;;2.00;;
3549;SDS011;45572;48.804;8.330;2023-04-23T05:12:11;3.78;;;2.35;;
3549;SDS011;45572;48.804;8.330;2023-04-23T05:14:38;6.65;;;2.67;;
3549;SDS011;45572;48.804;8.330;2023-04-23T05:17:06;2.15;;;1.65;;
3549;SDS011;45572;48.804;8.330;2023-04-23T05:19:36;3.20;;;2.60;;
3549;SDS011;45572;48.804;8.330;2023-04-23T05:22:06;2.65;;;2.10;;
3549;SDS011;45572;48.804;8.330;2023-04-23T05:24:34;2.30;;;1.80;;
3549;SDS011;45572;48.804;8.330;2023-04-23T05:27:02;2.97;;;1.95;;
3549;SDS011;45572;48.804;8.330;2023-04-23T05:29:35;3.45;;;2.30;;
3549;SDS011;45572;48.804;8.330;2023-04-23T05:32:02;2.20;;;2.00;;
3549;SDS011;45572;48.804;8.330;2023-04-23T05:34:31;3.70;;;2.47;;
3549;SDS011;45572;48.804;8.330;2023-04-23T05:37:00;2.75;;;1.92;;
3549;SDS011;45572;48.804;8.330;2023-04-23T05:39:28;2.53;;;1.92;;
3549;SDS011;45572;48.804;8.330;2023-04-23T05:41:56;3.60;;;2.22;;
3549;SDS011;45572;48.804;8.330;2023-04-23T05:44:24;5.50;;;2.78;;
3549;SDS011;45572;48.804;8.330;2023-04-23T05:46:52;3.17;;;1.90;;
3549;SDS011;45572;48.804;8.330;2023-04-23T05:49:20;2.75;;;1.80;;
3549;SDS011;45572;48.804;8.330;2023-04-23T05:51:48;2.17;;;1.98;;
3549;SDS011;45572;48.804;8.330;2023-04-23T05:54:18;2.10;;;1.60;;
3549;SDS011;45572;48.804;8.330;2023-04-23T05:56:45;7.43;;;2.25;;
3549;SDS011;45572;48.804;8.330;2023-04-23T05:59:13;3.38;;;2.00;;
3549;SDS011;45572;48.804;8.330;2023-04-23T06:01:41;2.00;;;1.80;;
3549;SDS011;45572;48.804;8.330;2023-04-23T06:04:11;5.47;;;1.85;;
3549;SDS011;45572;48.804;8.330;2023-04-23T06:06:40;3.15;;;2.05;;
3549;SDS011;45572;48.804;8.330;2023-04-23T06:09:08;2.65;;;2.00;;
3549;SDS011;45572;48.804;8.330;2023-04-23T06:11:37;1.98;;;1.60;;
3549;SDS011;45572;48.804;8.330;2023-04-23T06:14:05;3.70;;;2.63;;
3549;SDS011;45572;48.804;8.330;2023-04-23T06:16:33;1.92;;;1.33;;
3549;SDS011;45572;48.804;8.330;2023-04-23T06:19:02;1.73;;;1.60;;
3549;SDS011;45572;48.804;8.330;2023-04-23T06:21:30;2.33;;;1.67;;
3549;SDS011;45572;48.804;8.330;2023-04-23T06:23:58;2.55;;;1.40;;
3549;SDS011;45572;48.804;8.330;2023-04-23T06:26:25;2.17;;;1.50;;
3549;SDS011;45572;48.804;8.330;2023-04-23T06:28:59;3.60;;;1.52;;
3549;SDS011;45572;48.804;8.330;2023-04-23T06:31:33;2.40;;;1.67;;
3549;SDS011;45572;48.804;8.330;2023-04-23T06:34:01;1.80;;;1.52;;
3549;SDS011;45572;48.804;8.330;2023-04-23T06:36:28;4.75;;;2.17;;
3549;SDS011;45572;48.804;8.330;2023-04-23T06:38:57;2.80;;;1.92;;
3549;SDS011;45572;48.804;8.330;2023-04-23T06:41:25;2.80;;;1.52;;
3549;SDS011;45572;48.804;8.330;2023-04-23T06:44:07;3.63;;;2.03;;
3549;SDS011;45572;48.804;8.330;2023-04-23T06:46:40;2.72;;;2.20;;
3549;SDS011;45572;48.804;8.330;2023-04-23T06:49:08;3.25;;;2.35;;
3549;SDS011;45572;48.804;8.330;2023-04-23T06:51:37;2.80;;;1.88;;
3549;SDS011;45572;48.804;8.330;2023-04-23T06:54:05;4.40;;;1.80;;
3549;SDS011;45572;48.804;8.330;2023-04-23T06:56:35;2.28;;;2.08;;
3549;SDS011;45572;48.804;8.330;2023-04-23T06:59:03;1.80;;;1.55;;
3549;SDS011;45572;48.804;8.330;2023-04-23T07:01:34;1.75;;;1.42;;
3549;SDS011;45572;48.804;8.330;2023-04-23T07:04:03;3.25;;;1.88;;
3549;SDS011;45572;48.804;8.330;2023-04-23T07:06:31;2.30;;;1.33;;
3549;SDS011;45572;48.804;8.330;2023-04-23T07:09:00;2.80;;;1.03;;
3549;SDS011;45572;48.804;8.330;2023-04-23T07:11:27;1.77;;;1.23;;
3549;SDS011;45572;48.804;8.330;2023-04-23T07:13:58;4.20;;;0.97;;
3549;SDS011;45572;48.804;8.330;2023-04-23T07:16:26;1.10;;;0.70;;
3549;SDS011;45572;48.804;8.330;2023-04-23T07:19:02;0.80;;;0.60;;
3549;SDS011;45572;48.804;8.330;2023-04-23T07:21:29;1.40;;;0.90;;
3549;SDS011;45572;48.804;8.330;2023-04-23T07:23:58;0.80;;;0.60;;
3549;SDS011;45572;48.804;8.330;2023-04-23T07:26:31;1.47;;;0.80;;
3549;SDS011;45572;48.804;8.330;2023-04-23T07:29:00;1.20;;;0.83;;
3549;SDS011;45572;48.804;8.330;2023-04-23T07:31:31;2.57;;;0.80;;
3549;SDS011;45572;48.804;8.330;2023-04-23T07:34:04;2.40;;;1.03;;
3549;SDS011;45572;48.804;8.330;2023-04-23T07:36:33;1.60;;;0.90;;
3549;SDS011;45572;48.804;8.330;2023-04-23T07:39:02;1.20;;;0.97;;
3549;SDS011;45572;48.804;8.330;2023-04-23T07:41:30;4.20;;;1.10;;
3549;SDS011;45572;48.804;8.330;2023-04-23T07:43:59;1.10;;;0.80;;
3549;SDS011;45572;48.804;8.330;2023-04-23T07:46:26;2.83;;;1.00;;
3549;SDS011;45572;48.804;8.330;2023-04-23T07:48:54;2.13;;;1.00;;
3549;SDS011;45572;48.804;8.330;2023-04-23T07:51:23;1.13;;;0.77;;
3549;SDS011;45572;48.804;8.330;2023-04-23T07:53:54;1.50;;;0.83;;
3549;SDS011;45572;48.804;8.330;2023-04-23T07:56:23;1.10;;;1.00;;
3549;SDS011;45572;48.804;8.330;2023-04-23T07:58:52;1.53;;;0.80;;
3549;SDS011;45572;48.804;8.330;2023-04-23T08:01:21;1.50;;;0.90;;
3549;SDS011;45572;48.804;8.330;2023-04-23T08:03:52;1.02;;;0.68;;
3549;SDS011;45572;48.804;8.330;2023-04-23T08:06:26;2.47;;;1.10;;
3549;SDS011;45572;48.804;8.330;2023-04-23T08:08:55;1.40;;;0.90;;
3549;SDS011;45572;48.804;8.330;2023-04-23T08:11:22;1.37;;;0.90;;
3549;SDS011;45572;48.804;8.330;2023-04-23T08:13:50;1.23;;;1.00;;
3549;SDS011;45572;48.804;8.330;2023-04-23T08:16:18;2.90;;;0.80;;
3549;SDS011;45572;48.804;8.330;2023-04-23T08:18:50;3.93;;;1.00;;
3549;SDS011;45572;48.804;8.330;2023-04-23T08:21:35;1.43;;;0.90;;
3549;SDS011;45572;48.804;8.330;2023-04-23T08:24:04;1.43;;;1.00;;
3549;SDS011;45572;48.804;8.330;2023-04-23T08:26:34;1.37;;;0.70;;
3549;SDS011;45572;48.804;8.330;2023-04-23T08:29:01;2.93;;;0.87;;
3549;SDS011;45572;48.804;8.330;2023-04-23T08:31:30;4.10;;;0.97;;
3549;SDS011;45572;48.804;8.330;2023-04-23T08:33:59;2.13;;;1.00;;
3549;SDS011;45572;48.804;8.330;2023-04-23T08:36:27;1.93;;;1.10;;
3549;SDS011;45572;48.804;8.330;2023-04-23T08:38:56;1.50;;;0.80;;
3549;SDS011;45572;48.804;8.330;2023-04-23T08:41:27;6.87;;;1.00;;
3549;SDS011;45572;48.804;8.330;2023-04-23T08:44:03;2.07;;;0.70;;
3549;SDS011;45572;48.804;8.330;2023-04-23T08:46:37;1.27;;;0.87;;
3549;SDS011;45572;48.804;8.330;2023-04-23T08:49:11;2.10;;;0.90;;
3549;SDS011;45572;48.804;8.330;2023-04-23T08:51:42;4.97;;;0.80;;
3549;SDS011;45572;48.804;8.330;2023-04-23T08:54:17;1.20;;;0.80;;
3549;SDS011;45572;48.804;8.330;2023-04-23T08:56:50;1.90;;;0.93;;
3549;SDS011;45572;48.804;8.330;2023-04-23T08:59:19;2.50;;;1.27;;
3549;SDS011;45572;48.804;8.330;2023-04-23T09:01:48;1.60;;;1.00;;
3549;SDS011;45572;48.804;8.330;2023-04-23T09:04:17;1.20;;;1.00;;
3549;SDS011;45572;48.804;8.330;2023-04-23T09:06:45;1.33;;;0.67;;
3549;SDS011;45572;48.804;8.330;2023-04-23T09:09:14;1.73;;;0.83;;
3549;SDS011;45572;48.804;8.330;2023-04-23T09:11:43;1.50;;;0.90;;
3549;SDS011;45572;48.804;8.330;2023-04-23T09:14:12;1.87;;;1.20;;
3549;SDS011;45572;48.804;8.330;2023-04-23T09:16:40;1.50;;;0.90;;
3549;SDS011;45572;48.804;8.330;2023-04-23T09:19:08;1.07;;;0.80;;
3549;SDS011;45572;48.804;8.330;2023-04-23T09:21:37;1.40;;;0.93;;
3549;SDS011;45572;48.804;8.330;2023-04-23T09:24:08;1.33;;;0.97;;
3549;SDS011;45572;48.804;8.330;2023-04-23T09:26:44;1.83;;;0.93;;
3549;SDS011;45572;48.804;8.330;2023-04-23T09:29:14;2.00;;;1.37;;
3549;SDS011;45572;48.804;8.330;2023-04-23T09:31:44;1.50;;;0.90;;
3549;SDS011;45572;48.804;8.330;2023-04-23T09:34:13;2.57;;;1.13;;
3549;SDS011;45572;48.804;8.330;2023-04-23T09:36:43;2.00;;;0.90;;
3549;SDS011;45572;48.804;8.330;2023-04-23T09:39:11;1.87;;;0.83;;
3549;SDS011;45572;48.804;8.330;2023-04-23T09:41:39;1.70;;;1.00;;
3549;SDS011;45572;48.804;8.330;2023-04-23T09:44:08;1.20;;;1.10;;
3549;SDS011;45572;48.804;8.330;2023-04-23T09:46:38;1.27;;;0.90;;
3549;SDS011;45572;48.804;8.330;2023-04-23T09:49:07;1.70;;;1.07;;
3549;SDS011;45572;48.804;8.330;2023-04-23T09:51:36;2.70;;;0.90;;
3549;SDS011;45572;48.804;8.330;2023-04-23T09:54:09;1.43;;;0.80;;
3549;SDS011;45572;48.804;8.330;2023-04-23T09:56:38;1.30;;;0.70;;
3549;SDS011;45572;48.804;8.330;2023-04-23T09:59:19;3.07;;;0.70;;
3549;SDS011;45572;48.804;8.330;2023-04-23T10:02:01;1.20;;;0.90;;
3549;SDS011;45572;48.804;8.330;2023-04-23T10:04:30;1.03;;;0.80;;
3549;SDS011;45572;48.804;8.330;2023-04-23T10:07:00;6.70;;;1.13;;
3549;SDS011;45572;48.804;8.330;2023-04-23T10:09:45;1.90;;;0.80;;
3549;SDS011;45572;48.804;8.330;2023-04-23T10:12:15;1.40;;;1.07;;
3549;SDS011;45572;48.804;8.330;2023-04-23T10:14:49;5.23;;;1.07;;
3549;SDS011;45572;48.804;8.330;2023-04-23T10:17:24;2.13;;;0.90;;
3549;SDS011;45572;48.804;8.330;2023-04-23T10:19:52;3.10;;;1.40;;
3549;SDS011;45572;48.804;8.330;2023-04-23T10:22:21;1.80;;;0.97;;
3549;SDS011;45572;48.804;8.330;2023-04-23T10:24:52;1.30;;;0.87;;
3549;SDS011;45572;48.804;8.330;2023-04-23T10:27:25;1.37;;;1.00;;
3549;SDS011;45572;48.804;8.330;2023-04-23T10:30:17;1.20;;;0.87;;
3549;SDS011;45572;48.804;8.330;2023-04-23T10:32:49;2.50;;;0.77;;
3549;SDS011;45572;48.804;8.330;2023-04-23T10:35:17;0.73;;;0.57;;
3549;SDS011;45572;48.804;8.330;2023-04-23T10:37:47;1.00;;;0.67;;
3549;SDS011;45572;48.804;8.330;2023-04-23T10:40:18;1.30;;;0.73;;
3549;SDS011;45572;48.804;8.330;2023-04-23T10:42:48;1.27;;;0.70;;
3549;SDS011;45572;48.804;8.330;2023-04-23T10:45:19;3.83;;;0.77;;
3549;SDS011;45572;48.804;8.330;2023-04-23T10:47:54;1.57;;;0.90;;
3549;SDS011;45572;48.804;8.330;2023-04-23T10:50:25;1.90;;;0.70;;
3549;SDS011;45572;48.804;8.330;2023-04-23T10:52:55;1.50;;;0.90;;
3549;SDS011;45572;48.804;8.330;2023-04-23T10:55:25;1.83;;;0.87;;
3549;SDS011;45572;48.804;8.330;2023-04-23T10:57:54;1.20;;;0.80;;
3549;SDS011;45572;48.804;8.330;2023-04-23T11:00:29;0.93;;;0.73;;
3549;SDS011;45572;48.804;8.330;2023-04-23T11:05:59;1.37;;;0.57;;
3549;SDS011;45572;48.804;8.330;2023-04-23T11:08:29;0.73;;;0.60;;
3549;SDS011;45572;48.804;8.330;2023-04-23T11:11:00;1.20;;;0.70;;
3549;SDS011;45572;48.804;8.330;2023-04-23T11:13:30;1.60;;;0.80;;
3549;SDS011;45572;48.804;8.330;2023-04-23T11:18:56;1.10;;;0.60;;
3549;SDS011;45572;48.804;8.330;2023-04-23T11:24:25;1.00;;;0.70;;
3549;SDS011;45572;48.804;8.330;2023-04-23T11:26:55;2.57;;;0.77;;
3549;SDS011;45572;48.804;8.330;2023-04-23T11:29:24;1.40;;;0.57;;
3549;SDS011;45572;48.804;8.330;2023-04-23T11:31:54;1.13;;;0.70;;
3549;SDS011;45572;48.804;8.330;2023-04-23T11:34:29;1.20;;;0.60;;
3549;SDS011;45572;48.804;8.330;2023-04-23T11:36:59;2.03;;;0.63;;
3549;SDS011;45572;48.804;8.330;2023-04-23T11:39:30;1.33;;;0.40;;
3549;SDS011;45572;48.804;8.330;2023-04-23T11:41:58;0.70;;;0.50;;
3549;SDS011;45572;48.804;8.330;2023-04-23T11:44:29;4.43;;;0.77;;
3549;SDS011;45572;48.804;8.330;2023-04-23T11:46:59;2.40;;;1.17;;
3549;SDS011;45572;48.804;8.330;2023-04-23T11:49:32;1.43;;;1.27;;
3549;SDS011;45572;48.804;8.330;2023-04-23T11:52:01;0.83;;;0.60;;
3549;SDS011;45572;48.804;8.330;2023-04-23T11:54:30;2.07;;;1.00;;
3549;SDS011;45572;48.804;8.330;2023-04-23T11:56:58;2.83;;;0.77;;
3549;SDS011;45572;48.804;8.330;2023-04-23T11:59:27;1.00;;;0.63;;
3549;SDS011;45572;48.804;8.330;2023-04-23T12:01:56;1.97;;;0.80;;
3549;SDS011;45572;48.804;8.330;2023-04-23T12:04:27;2.43;;;0.77;;
3549;SDS011;45572;48.804;8.330;2023-04-23T12:06:56;1.30;;;0.97;;
3549;SDS011;45572;48.804;8.330;2023-04-23T12:09:26;2.40;;;1.00;;
3549;SDS011;45572;48.804;8.330;2023-04-23T12:11:55;1.63;;;0.80;;
3549;SDS011;45572;48.804;8.330;2023-04-23T12:14:25;1.23;;;0.70;;
3549;SDS011;45572;48.804;8.330;2023-04-23T12:16:55;1.00;;;0.70;;
3549;SDS011;45572;48.804;8.330;2023-04-23T12:19:27;1.90;;;1.20;;
3549;SDS011;45572;48.804;8.330;2023-04-23T12:21:57;0.90;;;0.60;;
3549;SDS011;45572;48.804;8.330;2023-04-23T12:24:28;1.10;;;0.80;;
3549;SDS011;45572;48.804;8.330;2023-04-23T12:26:59;1.10;;;0.80;;
3549;SDS011;45572;48.804;8.330;2023-04-23T12:29:30;1.27;;;0.60;;
3549;SDS011;45572;48.804;8.330;2023-04-23T12:31:58;1.07;;;0.70;;
3549;SDS011;45572;48.804;8.330;2023-04-23T12:34:28;2.00;;;0.97;;
3549;SDS011;45572;48.804;8.330;2023-04-23T12:36:56;1.03;;;0.63;;
3549;SDS011;45572;48.804;8.330;2023-04-23T12:39:26;2.03;;;1.20;;
3549;SDS011;45572;48.804;8.330;2023-04-23T12:41:56;1.00;;;0.60;;
3549;SDS011;45572;48.804;8.330;2023-04-23T12:44:26;2.60;;;0.80;;
3549;SDS011;45572;48.804;8.330;2023-04-23T12:46:55;1.27;;;0.70;;
3549;SDS011;45572;48.804;8.330;2023-04-23T12:49:24;0.83;;;0.60;;
3549;SDS011;45572;48.804;8.330;2023-04-23T12:52:11;2.20;;;1.27;;
3549;SDS011;45572;48.804;8.330;2023-04-23T12:54:40;1.00;;;0.60;;
3549;SDS011;45572;48.804;8.330;2023-04-23T12:57:10;2.30;;;0.70;;
3549;SDS011;45572;48.804;8.330;2023-04-23T12:59:39;0.83;;;0.53;;
3549;SDS011;45572;48.804;8.330;2023-04-23T13:02:07;1.73;;;0.60;;
3549;SDS011;45572;48.804;8.330;2023-04-23T13:04:39;1.53;;;0.80;;
3549;SDS011;45572;48.804;8.330;2023-04-23T13:07:08;1.30;;;0.63;;
3549;SDS011;45572;48.804;8.330;2023-04-23T13:09:37;2.50;;;0.63;;
3549;SDS011;45572;48.804;8.330;2023-04-23T13:12:05;0.77;;;0.50;;
3549;SDS011;45572;48.804;8.330;2023-04-23T13:14:32;1.97;;;0.67;;
3549;SDS011;45572;48.804;8.330;2023-04-23T13:17:01;1.80;;;0.53;;
3549;SDS011;45572;48.804;8.330;2023-04-23T13:19:29;0.83;;;0.50;;
3549;SDS011;45572;48.804;8.330;2023-04-23T13:21:57;1.00;;;0.50;;
3549;SDS011;45572;48.804;8.330;2023-04-23T13:24:25;1.80;;;0.50;;
3549;SDS011;45572;48.804;8.330;2023-04-23T13:26:54;1.00;;;0.60;;
3549;SDS011;45572;48.804;8.330;2023-04-23T13:29:24;0.80;;;0.50;;
3549;SDS011;45572;48.804;8.330;2023-04-23T13:31:52;2.13;;;0.60;;
3549;SDS011;45572;48.804;8.330;2023-04-23T13:34:20;1.77;;;0.60;;
3549;SDS011;45572;48.804;8.330;2023-04-23T13:36:48;2.07;;;0.80;;
3549;SDS011;45572;48.804;8.330;2023-04-23T13:39:16;1.13;;;0.67;;
3549;SDS011;45572;48.804;8.330;2023-04-23T13:41:45;1.80;;;0.80;;
3549;SDS011;45572;48.804;8.330;2023-04-23T13:44:29;0.90;;;0.60;;
3549;SDS011;45572;48.804;8.330;2023-04-23T13:46:58;1.90;;;0.63;;
3549;SDS011;45572;48.804;8.330;2023-04-23T13:49:26;0.90;;;0.63;;
3549;SDS011;45572;48.804;8.330;2023-04-23T13:51:53;0.97;;;0.70;;
3549;SDS011;45572;48.804;8.330;2023-04-23T13:54:25;1.63;;;0.77;;
3549;SDS011;45572;48.804;8.330;2023-04-23T13:56:53;1.57;;;0.50;;
3549;SDS011;45572;48.804;8.330;2023-04-23T13:59:21;5.43;;;0.73;;
3549;SDS011;45572;48.804;8.330;2023-04-23T14:01:51;11.13;;;2.47;;
3549;SDS011;45572;48.804;8.330;2023-04-23T14:04:21;2.20;;;0.60;;
3549;SDS011;45572;48.804;8.330;2023-04-23T14:06:50;1.60;;;1.00;;
3549;SDS011;45572;48.804;8.330;2023-04-23T14:09:18;2.30;;;0.53;;
3549;SDS011;45572;48.804;8.330;2023-04-23T14:11:48;2.10;;;1.20;;
3549;SDS011;45572;48.804;8.330;2023-04-23T14:14:16;0.90;;;0.70;;
3549;SDS011;45572;48.804;8.330;2023-04-23T14:16:46;3.83;;;0.60;;
3549;SDS011;45572;48.804;8.330;2023-04-23T14:19:15;0.87;;;0.50;;
3549;SDS011;45572;48.804;8.330;2023-04-23T14:21:46;1.33;;;0.70;;
3549;SDS011;45572;48.804;8.330;2023-04-23T14:24:16;1.17;;;0.60;;
3549;SDS011;45572;48.804;8.330;2023-04-23T14:26:44;2.93;;;0.50;;
3549;SDS011;45572;48.804;8.330;2023-04-23T14:29:18;2.13;;;0.60;;
3549;SDS011;45572;48.804;8.330;2023-04-23T14:31:51;4.50;;;1.20;;
3549;SDS011;45572;48.804;8.330;2023-04-23T14:34:22;1.83;;;0.80;;
3549;SDS011;45572;48.804;8.330;2023-04-23T14:36:51;1.07;;;0.70;;
3549;SDS011;45572;48.804;8.330;2023-04-23T14:39:20;2.17;;;0.73;;
3549;SDS011;45572;48.804;8.330;2023-04-23T14:41:49;1.47;;;0.80;;
3549;SDS011;45572;48.804;8.330;2023-04-23T14:44:18;1.50;;;0.87;;
3549;SDS011;45572;48.804;8.330;2023-04-23T14:46:48;1.37;;;0.70;;
3549;SDS011;45572;48.804;8.330;2023-04-23T14:49:16;1.30;;;0.70;;
3549;SDS011;45572;48.804;8.330;2023-04-23T14:51:47;1.70;;;0.80;;
3549;SDS011;45572;48.804;8.330;2023-04-23T14:54:16;1.77;;;0.60;;
3549;SDS011;45572;48.804;8.330;2023-04-23T14:56:44;0.90;;;0.60;;
3549;SDS011;45572;48.804;8.330;2023-04-23T14:59:12;3.60;;;1.10;;
3549;SDS011;45572;48.804;8.330;2023-04-23T15:01:41;2.20;;;0.70;;
3549;SDS011;45572;48.804;8.330;2023-04-23T15:04:11;1.30;;;0.60;;
3549;SDS011;45572;48.804;8.330;2023-04-23T15:06:40;8.80;;;0.87;;
3549;SDS011;45572;48.804;8.330;2023-04-23T15:09:09;2.47;;;1.00;;
3549;SDS011;45572;48.804;8.330;2023-04-23T15:11:38;1.47;;;0.77;;
3549;SDS011;45572;48.804;8.330;2023-04-23T15:14:07;1.00;;;0.70;;
3549;SDS011;45572;48.804;8.330;2023-04-23T15:16:46;1.60;;;0.70;;
3549;SDS011;45572;48.804;8.330;2023-04-23T15:19:15;2.07;;;0.83;;
3549;SDS011;45572;48.804;8.330;2023-04-23T15:21:44;2.60;;;1.00;;
3549;SDS011;45572;48.804;8.330;2023-04-23T15:24:14;1.03;;;0.70;;